Time;durP1;ratioP1;P1;durP2;ratioP2;P2;SDS_P1;SDS_P2;PMS_P1;PMS_P2;Temp;Humidity;BMP_temperature;BMP_pressure;BME280_temperature;BME280_humidity;BME280_pressure;Samples;Min_cycle;Max_cycle;Signal;HPM_P1;HPM_P2
2021/12/18 00:00:34;;;;;;;64.68;8.82;;;;;;;2.07;100.00;103218.66;4789987;29;20034;-77
2021/12/18 00:02:59;;;;;;;78.22;9.98;;;;;;;2.08;100.00;103213.25;4805397;29;20069;-77
2021/12/18 00:05:25;;;;;;;90.35;9.95;;;;;;;2.13;100.00;103206.84;4805736;29;20113;-77
2021/12/18 00:07:50;;;;;;;80.00;10.57;;;;;;;2.16;100.00;103207.53;4804398;29;20393;-77
2021/12/18 00:10:20;;;;;;;136.40;12.52;;;;;;;2.19;100.00;103196.75;4788890;29;20043;-77
2021/12/18 00:12:49;;;;;;;129.43;12.00;;;;;;;2.28;100.00;103195.34;4786878;29;20417;-77
2021/12/18 00:15:15;;;;;;;202.93;14.35;;;;;;;2.31;100.00;103195.19;4780668;29;20035;-78
2021/12/18 00:17:41;;;;;;;155.35;12.68;;;;;;;2.44;100.00;103190.88;4800189;29;20046;-78
2021/12/18 00:20:07;;;;;;;161.30;13.27;;;;;;;2.49;100.00;103194.16;4781061;29;20360;-77
2021/12/18 00:22:33;;;;;;;211.00;12.95;;;;;;;2.53;100.00;103189.53;4803057;29;20035;-77
2021/12/18 00:24:58;;;;;;;170.63;13.30;;;;;;;2.58;100.00;103187.44;4789574;29;20495;-77
2021/12/18 00:27:23;;;;;;;153.80;13.50;;;;;;;2.66;100.00;103187.88;4804258;29;20031;-78
2021/12/18 00:29:49;;;;;;;200.30;14.52;;;;;;;2.72;100.00;103182.19;4790936;29;20045;-78
2021/12/18 00:32:14;;;;;;;266.50;15.57;;;;;;;2.72;100.00;103170.72;4803647;29;20031;-78
2021/12/18 00:34:40;;;;;;;277.02;15.15;;;;;;;2.82;100.00;103180.72;4787156;29;20041;-78
2021/12/18 00:37:05;;;;;;;242.98;14.70;;;;;;;2.86;100.00;103169.91;4789536;29;20198;-77
2021/12/18 00:39:33;;;;;;;241.00;15.63;;;;;;;2.88;100.00;103173.31;4803387;29;20050;-78
2021/12/18 00:42:20;;;;;;;267.23;14.93;;;;;;;2.93;100.00;103171.25;4790042;29;20039;-77
2021/12/18 00:44:46;;;;;;;288.55;16.30;;;;;;;2.56;100.00;103104.28;4790755;29;20061;-77
2021/12/18 00:47:11;;;;;;;277.92;15.57;;;;;;;2.99;100.00;103171.72;4805125;29;20031;-78
2021/12/18 00:49:37;;;;;;;240.82;14.85;;;;;;;3.02;100.00;103162.72;4789708;29;20057;-78
2021/12/18 00:52:03;;;;;;;374.40;17.42;;;;;;;3.05;100.00;103176.69;4803818;29;20030;-78
2021/12/18 00:54:29;;;;;;;266.00;15.30;;;;;;;3.07;100.00;103173.94;4801482;29;20561;-77
2021/12/18 00:56:54;;;;;;;167.10;11.10;;;;;;;2.96;100.00;103149.78;4805321;29;20114;-78
2021/12/18 00:59:20;;;;;;;155.27;11.48;;;;;;;3.12;100.00;103171.00;4804609;29;20038;-77
2021/12/18 01:01:47;;;;;;;290.50;13.45;;;;;;;3.16;100.00;103173.38;4808307;29;20535;-78
2021/12/18 01:04:12;;;;;;;284.60;13.43;;;;;;;3.06;100.00;103140.31;4806771;29;20165;-78
2021/12/18 01:06:38;;;;;;;351.23;14.02;;;;;;;3.29;100.00;103174.34;4808058;29;20506;-78
2021/12/18 01:09:04;;;;;;;330.00;16.45;;;;;;;3.34;100.00;103160.75;4791748;29;20047;-77
2021/12/18 01:12:04;;;;;;;421.17;18.10;;;;;;;3.34;100.00;103167.88;4792400;29;20141;-78
2021/12/18 01:24:52;;;;;;;196.65;12.15;;;;;;;3.25;100.00;103158.66;4806529;29;20085;-77
2021/12/18 01:27:18;;;;;;;158.80;9.63;;;;;;;3.28;100.00;103171.78;4807558;29;20031;-78
2021/12/18 01:29:44;;;;;;;148.27;9.80;;;;;;;3.27;100.00;103165.59;4808232;29;20031;-77
2021/12/18 01:32:10;;;;;;;130.00;9.43;;;;;;;3.25;100.00;103167.50;4790957;29;20367;-77
2021/12/18 01:34:36;;;;;;;332.98;17.42;;;;;;;3.23;100.00;103164.06;4792518;29;20041;-78
2021/12/18 01:37:02;;;;;;;177.32;11.18;;;;;;;3.19;100.00;103159.91;4792225;29;20054;-77
2021/12/18 01:39:27;;;;;;;169.93;11.27;;;;;;;3.01;100.00;103119.31;4791874;29;20027;-78
2021/12/18 01:44:54;;;;;;;133.75;8.95;;;;;;;3.15;100.00;103155.72;4808616;29;20037;-77
2021/12/18 01:52:53;;;;;;;91.80;7.22;;;;;;;3.03;100.00;103130.69;4807987;29;20067;-78
2021/12/18 01:55:19;;;;;;;152.00;7.53;;;;;;;3.14;100.00;103137.16;4815546;29;20055;-77
2021/12/18 01:57:44;;;;;;;129.80;7.60;;;;;;;3.16;100.00;103137.94;4808230;29;20035;-78
2021/12/18 02:00:20;;;;;;;118.47;7.53;;;;;;;3.17;100.00;103145.81;4806305;29;20038;-78
2021/12/18 02:02:45;;;;;;;89.28;6.88;;;;;;;3.17;100.00;103135.19;4791949;29;20035;-77
2021/12/18 02:05:11;;;;;;;121.97;7.47;;;;;;;3.18;100.00;103136.91;4807390;29;20038;-78
2021/12/18 02:07:40;;;;;;;125.57;7.60;;;;;;;3.03;100.00;103108.56;4805921;29;20823;-78
2021/12/18 02:10:09;;;;;;;124.03;7.13;;;;;;;3.17;100.00;103118.38;4821810;29;20122;-78
2021/12/18 02:20:56;;;;;;;75.15;6.00;;;;;;;3.11;100.00;103111.59;4807594;29;20073;-77
2021/12/18 02:23:23;;;;;;;75.25;5.78;;;;;;;3.09;100.00;103104.69;4806771;29;20476;-77
2021/12/18 02:25:49;;;;;;;86.00;6.10;;;;;;;3.25;100.00;103134.72;4792078;29;20099;-77
2021/12/18 02:28:23;;;;;;;89.50;6.03;;;;;;;3.18;100.00;103118.28;4814011;29;20046;-78
2021/12/18 02:30:51;;;;;;;78.72;5.35;;;;;;;3.26;100.00;103131.09;4807767;29;20069;-78
2021/12/18 02:33:16;;;;;;;93.53;5.78;;;;;;;3.27;100.00;103127.50;4806072;29;20039;-78
2021/12/18 02:35:49;;;;;;;73.97;5.05;;;;;;;3.10;100.00;103093.09;4806573;29;20035;-78
2021/12/18 02:38:30;;;;;;;68.43;4.72;;;;;;;3.29;100.00;103121.13;4807512;29;20476;-77
2021/12/18 02:43:42;;;;;;;99.10;5.75;;;;;;;3.21;100.00;103112.78;4808537;29;20042;-77
2021/12/18 02:46:09;;;;;;;102.63;5.53;;;;;;;3.29;100.00;103125.59;4791527;29;20469;-78
2021/12/18 02:48:37;;;;;;;85.30;5.85;;;;;;;3.32;100.00;103117.44;4792875;29;20041;-78
2021/12/18 02:51:04;;;;;;;97.07;4.75;;;;;;;3.32;100.00;103104.13;4808387;29;20034;-78
2021/12/18 02:53:30;;;;;;;113.05;5.15;;;;;;;3.29;100.00;103091.84;4806436;29;20046;-77
2021/12/18 02:55:59;;;;;;;87.88;4.32;;;;;;;3.36;100.00;103097.66;4805982;29;20042;-78
2021/12/18 02:58:24;;;;;;;102.68;5.13;;;;;;;3.33;100.00;103089.00;4806737;29;20489;-78
2021/12/18 03:00:51;;;;;;;65.78;4.80;;;;;;;3.32;100.00;103088.16;4806563;29;20109;-77
2021/12/18 03:03:18;;;;;;;132.90;5.70;;;;;;;3.43;100.00;103100.78;4785867;29;20039;-78
2021/12/18 03:05:59;;;;;;;150.75;5.03;;;;;;;3.40;100.00;103085.00;4801886;29;20030;-78
2021/12/18 03:08:33;;;;;;;144.57;6.85;;;;;;;3.41;100.00;103076.06;4792465;29;20390;-77
2021/12/18 03:20:04;;;;;;;93.65;4.88;;;;;;;3.44;100.00;103054.59;4807676;29;20030;-78
2021/12/18 03:27:19;;;;;;;76.15;5.63;;;;;;;3.50;100.00;103054.19;4806313;29;20062;-78
2021/12/18 03:29:45;;;;;;;89.45;4.97;;;;;;;3.47;100.00;103052.56;4814915;29;20031;-78
2021/12/18 03:32:11;;;;;;;90.32;6.72;;;;;;;3.52;100.00;103052.31;4806119;29;20359;-78
2021/12/18 03:34:36;;;;;;;60.95;5.80;;;;;;;3.50;100.00;103049.72;4809949;29;20035;-77
2021/12/18 03:37:03;;;;;;;96.88;6.38;;;;;;;3.22;100.00;102992.09;4816991;29;20043;-78
2021/12/18 03:39:28;;;;;;;82.63;5.97;;;;;;;3.47;100.00;103033.09;4812066;29;20058;-78
2021/12/18 03:41:54;;;;;;;66.40;4.97;;;;;;;3.59;100.00;103056.28;4811617;29;20076;-78
2021/12/18 03:44:20;;;;;;;91.80;6.53;;;;;;;3.37;100.00;103008.03;4808926;29;20046;-78
2021/12/18 03:46:46;;;;;;;81.78;5.47;;;;;;;3.61;100.00;103050.84;4793799;29;20427;-77
2021/12/18 03:49:11;;;;;;;68.38;5.07;;;;;;;3.51;100.00;103021.31;4792714;29;20123;-78
2021/12/18 03:51:37;;;;;;;99.57;5.05;;;;;;;3.54;100.00;103026.41;4810449;29;20029;-78
2021/12/18 03:54:02;;;;;;;67.22;4.57;;;;;;;3.67;100.00;103042.47;4809685;29;20039;-78
2021/12/18 03:56:28;;;;;;;161.20;6.85;;;;;;;3.67;100.00;103045.97;4809774;29;20043;-78
2021/12/18 03:58:54;;;;;;;88.60;5.32;;;;;;;3.69;100.00;103054.72;4809753;29;20035;-77
2021/12/18 04:01:19;;;;;;;96.05;5.57;;;;;;;3.69;100.00;103051.22;4811525;29;20046;-78
2021/12/18 04:03:44;;;;;;;99.75;6.03;;;;;;;3.70;100.00;103050.25;4809465;29;20423;-78
2021/12/18 04:06:10;;;;;;;103.03;5.88;;;;;;;3.59;100.00;103027.00;4791610;29;20035;-78
2021/12/18 04:08:35;;;;;;;108.38;6.45;;;;;;;3.66;100.00;103033.63;4791523;30;20063;-77
2021/12/18 04:11:01;;;;;;;181.80;6.50;;;;;;;3.73;100.00;103044.72;4804775;29;20058;-78
2021/12/18 04:13:26;;;;;;;156.63;6.47;;;;;;;3.73;100.00;103040.25;4810032;29;20031;-78
2021/12/18 04:15:51;;;;;;;153.75;8.65;;;;;;;3.77;100.00;103046.25;4797895;29;20027;-78
2021/12/18 04:18:17;;;;;;;174.98;9.77;;;;;;;3.78;100.00;103057.78;4805470;29;20125;-78
2021/12/18 04:20:42;;;;;;;208.65;9.85;;;;;;;3.78;100.00;103066.59;4808429;29;20031;-78
2021/12/18 04:23:08;;;;;;;151.98;7.88;;;;;;;3.81;100.00;103057.53;4814587;29;20192;-78
2021/12/18 04:25:33;;;;;;;105.65;6.15;;;;;;;3.82;100.00;103060.13;4810353;29;20039;-78
2021/12/18 04:27:59;;;;;;;151.10;7.65;;;;;;;3.83;100.00;103066.31;4805214;29;20089;-78
2021/12/18 04:30:24;;;;;;;193.27;9.10;;;;;;;3.80;100.00;103056.69;4768476;29;20043;-77
2021/12/18 04:32:49;;;;;;;222.65;9.00;;;;;;;3.86;100.00;103058.13;4798833;29;20036;-78
2021/12/18 04:35:15;;;;;;;109.00;6.25;;;;;;;3.86;100.00;103050.13;4800533;29;20039;-78
2021/12/18 04:37:41;;;;;;;152.48;8.48;;;;;;;3.86;100.00;103052.78;4810358;29;20042;-78
2021/12/18 04:40:08;;;;;;;119.00;6.05;;;;;;;3.88;100.00;103064.22;4804882;29;20058;-77
2021/12/18 04:42:33;;;;;;;80.53;5.53;;;;;;;3.90;100.00;103056.94;4807351;29;20023;-78
2021/12/18 04:44:59;;;;;;;158.88;7.60;;;;;;;3.90;100.00;103049.81;4796415;29;20031;-78
2021/12/18 04:47:24;;;;;;;55.50;5.85;;;;;;;3.78;100.00;103021.34;4801585;29;20444;-78
2021/12/18 04:49:49;;;;;;;167.88;7.18;;;;;;;3.90;100.00;103048.97;4806898;29;20462;-78
2021/12/18 04:52:15;;;;;;;59.00;5.53;;;;;;;3.67;100.00;102999.88;4813095;29;20061;-78
2021/12/18 04:54:41;;;;;;;104.47;5.88;;;;;;;3.93;100.00;103022.97;4799464;29;20038;-78
2021/12/18 04:57:06;;;;;;;64.20;5.53;;;;;;;3.95;100.00;103022.88;4812535;29;20108;-78
2021/12/18 04:59:31;;;;;;;96.43;6.88;;;;;;;3.91;100.00;103021.41;4805524;29;20114;-78
2021/12/18 05:01:57;;;;;;;111.40;5.53;;;;;;;3.82;100.00;103022.84;4794259;29;20098;-77
2021/12/18 05:04:23;;;;;;;78.97;5.72;;;;;;;3.46;100.00;102957.72;4808177;29;20035;-78
2021/12/18 05:06:51;;;;;;;53.38;4.68;;;;;;;3.78;100.00;103021.34;4815546;29;20105;-78
2021/12/18 05:09:17;;;;;;;76.25;5.03;;;;;;;3.33;100.00;102945.31;4809276;29;20455;-77
2021/12/18 05:11:43;;;;;;;91.38;6.00;;;;;;;3.63;100.00;102975.25;4806389;29;20041;-77
2021/12/18 05:14:09;;;;;;;89.70;6.38;;;;;;;3.74;100.00;102998.50;4809605;29;20039;-77
2021/12/18 05:16:35;;;;;;;58.83;7.18;;;;;;;3.71;100.00;102983.59;4792494;29;20098;-78
2021/12/18 05:19:02;;;;;;;83.53;9.98;;;;;;;3.58;100.00;102955.22;4808469;29;20046;-78
2021/12/18 05:21:27;;;;;;;81.95;7.15;;;;;;;3.64;100.00;102969.00;4809003;29;20034;-78
2021/12/18 05:23:53;;;;;;;76.88;7.20;;;;;;;3.55;100.00;102966.06;4805706;29;20465;-78
2021/12/18 05:26:19;;;;;;;67.40;6.68;;;;;;;3.68;100.00;102978.47;4809077;29;20027;-78
2021/12/18 05:28:45;;;;;;;88.07;6.85;;;;;;;3.55;100.00;102953.63;4807234;29;20087;-78
2021/12/18 05:31:13;;;;;;;104.65;8.15;;;;;;;3.65;100.00;102957.38;4807989;29;20047;-78
2021/12/18 05:33:39;;;;;;;96.70;7.35;;;;;;;3.66;100.00;102952.91;4808499;29;20031;-78
2021/12/18 05:36:23;;;;;;;104.28;6.22;;;;;;;3.67;100.00;102943.94;4807818;29;20149;-78
2021/12/18 05:38:49;;;;;;;70.38;4.57;;;;;;;3.71;100.00;102962.31;4808912;29;20394;-78
2021/12/18 05:41:16;;;;;;;81.05;4.85;;;;;;;3.71;100.00;102974.78;4806935;29;20035;-78
2021/12/18 05:43:41;;;;;;;106.10;6.53;;;;;;;3.72;100.00;102974.66;4808362;29;20051;-78
2021/12/18 05:46:06;;;;;;;102.65;5.93;;;;;;;3.74;100.00;102961.22;4807650;29;20081;-78
2021/12/18 05:48:32;;;;;;;109.63;6.30;;;;;;;3.75;100.00;102974.47;4790858;29;20130;-78
2021/12/18 05:50:57;;;;;;;99.15;5.38;;;;;;;3.78;100.00;102986.72;4792105;29;20046;-78
2021/12/18 05:53:22;;;;;;;83.65;5.95;;;;;;;3.78;100.00;102984.06;4792500;29;20077;-78
2021/12/18 05:55:48;;;;;;;91.72;5.85;;;;;;;3.64;100.00;102962.78;4798204;29;20099;-78
2021/12/18 05:58:13;;;;;;;144.40;7.00;;;;;;;3.82;100.00;102995.34;4808141;29;20035;-78
2021/12/18 06:00:39;;;;;;;102.28;6.15;;;;;;;3.81;100.00;103005.16;4807624;29;20461;-77
2021/12/18 06:03:04;;;;;;;138.25;6.85;;;;;;;3.72;100.00;102990.63;4795348;29;20117;-77
2021/12/18 06:05:30;;;;;;;100.57;5.40;;;;;;;3.63;100.00;102977.06;4807997;29;20407;-78
2021/12/18 06:07:57;;;;;;;115.72;6.00;;;;;;;3.85;100.00;103013.81;4808061;29;20054;-78
2021/12/18 06:10:28;;;;;;;145.23;7.07;;;;;;;3.72;100.00;102995.97;4806869;29;20071;-78
2021/12/18 06:12:57;;;;;;;101.13;5.55;;;;;;;3.68;100.00;102972.31;4808329;29;20033;-78
2021/12/18 06:15:22;;;;;;;99.68;5.70;;;;;;;3.78;100.00;102980.53;4807463;29;20461;-78
2021/12/18 06:17:48;;;;;;;150.68;6.93;;;;;;;3.88;100.00;102997.63;4807192;29;20049;-78
2021/12/18 06:20:13;;;;;;;135.73;7.43;;;;;;;3.82;100.00;102980.22;4821740;29;20031;-77
2021/12/18 06:22:39;;;;;;;144.77;7.38;;;;;;;3.89;100.00;102988.66;4805955;29;20532;-78
2021/12/18 06:25:05;;;;;;;140.57;6.25;;;;;;;3.88;100.00;102987.81;4806429;29;20023;-78
2021/12/18 06:27:30;;;;;;;118.38;6.88;;;;;;;3.85;100.00;102981.84;4807615;29;20035;-78
2021/12/18 06:29:55;;;;;;;105.25;5.65;;;;;;;3.83;100.00;102976.59;4806254;29;20374;-78
2021/12/18 06:32:21;;;;;;;156.73;7.25;;;;;;;3.82;100.00;102968.72;4806641;29;20073;-78
2021/12/18 06:34:46;;;;;;;145.13;6.63;;;;;;;3.86;100.00;102976.41;4806016;29;20031;-77
2021/12/18 06:37:12;;;;;;;140.98;7.40;;;;;;;3.86;100.00;102970.22;4806989;29;20043;-78
2021/12/18 06:39:37;;;;;;;123.05;7.60;;;;;;;3.87;100.00;102964.78;4819953;29;20030;-78
2021/12/18 06:42:04;;;;;;;108.00;7.15;;;;;;;3.82;100.00;102950.94;4807116;29;20023;-78
2021/12/18 06:44:30;;;;;;;130.75;7.63;;;;;;;3.88;100.00;102952.34;4807069;29;20031;-78
2021/12/18 06:46:56;;;;;;;129.55;8.20;;;;;;;3.75;100.00;102926.53;4806401;29;20366;-78
2021/12/18 06:49:22;;;;;;;117.68;7.53;;;;;;;3.83;100.00;102933.13;4805607;29;20045;-78
2021/12/18 06:51:47;;;;;;;78.90;6.78;;;;;;;3.84;100.00;102940.16;4804101;29;20421;-77
2021/12/18 06:54:13;;;;;;;154.27;8.10;;;;;;;3.78;100.00;102928.13;4821957;29;20039;-78
2021/12/18 06:56:38;;;;;;;130.80;7.15;;;;;;;3.85;100.00;102932.09;4806432;29;20117;-78
2021/12/18 06:59:03;;;;;;;165.52;7.15;;;;;;;3.84;100.00;102934.84;4805872;29;20372;-78
2021/12/18 07:01:29;;;;;;;163.80;7.25;;;;;;;3.84;100.00;102935.72;4791397;29;20039;-78
2021/12/18 07:03:54;;;;;;;131.85;6.97;;;;;;;3.85;100.00;102924.09;4795868;29;20039;-78
2021/12/18 07:06:20;;;;;;;144.98;8.05;;;;;;;3.85;100.00;102925.91;4807727;29;20469;-78
2021/12/18 07:08:45;;;;;;;109.45;6.82;;;;;;;3.85;100.00;102923.25;4820360;29;20070;-78
2021/12/18 07:11:11;;;;;;;115.15;6.63;;;;;;;3.86;100.00;102932.94;4807787;29;20050;-78
2021/12/18 07:13:36;;;;;;;117.95;6.35;;;;;;;3.77;100.00;102923.75;4775762;29;20066;-78
2021/12/18 07:16:02;;;;;;;81.28;5.90;;;;;;;3.90;100.00;102947.75;4804645;29;20027;-78
2021/12/18 07:18:27;;;;;;;128.10;7.22;;;;;;;3.90;100.00;102942.41;4790987;29;20035;-78
2021/12/18 07:20:52;;;;;;;131.30;6.68;;;;;;;3.81;100.00;102919.06;4787454;29;20028;-78
2021/12/18 07:23:19;;;;;;;162.75;7.82;;;;;;;3.89;100.00;102938.91;4806310;29;20051;-78
2021/12/18 07:25:45;;;;;;;123.38;7.07;;;;;;;3.92;100.00;102941.38;4802727;29;20514;-78
2021/12/18 07:28:10;;;;;;;127.93;8.95;;;;;;;3.93;100.00;102932.41;4794423;29;20481;-78
2021/12/18 07:30:35;;;;;;;155.25;9.45;;;;;;;3.93;100.00;102936.88;4807305;29;20031;-78
2021/12/18 07:33:01;;;;;;;117.25;8.30;;;;;;;3.93;100.00;102929.75;4805815;29;20468;-78
2021/12/18 07:35:26;;;;;;;99.95;6.68;;;;;;;3.82;100.00;102916.31;4804285;29;20031;-78
2021/12/18 07:37:52;;;;;;;211.05;9.23;;;;;;;3.94;100.00;102926.16;4806320;29;20035;-78
2021/12/18 07:40:17;;;;;;;126.75;7.10;;;;;;;3.94;100.00;102935.94;4789739;29;20046;-78
2021/12/18 07:42:43;;;;;;;109.22;7.00;;;;;;;3.84;100.00;102914.41;4776463;29;20035;-78
2021/12/18 07:45:09;;;;;;;148.60;8.63;;;;;;;3.92;100.00;102928.06;4790905;29;20066;-78
2021/12/18 07:47:35;;;;;;;143.80;8.00;;;;;;;3.94;100.00;102925.28;4805812;29;20058;-78
2021/12/18 07:50:05;;;;;;;98.38;6.88;;;;;;;3.93;100.00;102916.44;4801066;29;20489;-79
2021/12/18 07:52:30;;;;;;;112.90;7.53;;;;;;;3.84;100.00;102901.09;4787261;29;20458;-79
2021/12/18 07:54:55;;;;;;;115.78;7.93;;;;;;;3.81;100.00;102888.00;4789657;29;20033;-78
2021/12/18 07:57:21;;;;;;;95.30;6.60;;;;;;;3.93;100.00;102900.44;4795875;29;20434;-78
2021/12/18 07:59:46;;;;;;;103.63;6.30;;;;;;;3.88;100.00;102893.75;4807564;29;20034;-80
2021/12/18 08:02:12;;;;;;;126.60;7.38;;;;;;;3.94;100.00;102895.97;4816900;29;20054;-79
2021/12/18 08:04:37;;;;;;;76.47;5.80;;;;;;;3.91;100.00;102886.41;4821856;29;20113;-78
2021/12/18 08:07:03;;;;;;;107.80;6.63;;;;;;;3.92;100.00;102885.44;4817990;29;20055;-79
2021/12/18 08:09:29;;;;;;;102.70;6.32;;;;;;;3.94;100.00;102885.31;4803772;29;20086;-80
2021/12/18 08:11:54;;;;;;;114.45;9.80;;;;;;;3.96;100.00;102891.41;4822707;29;20047;-79
2021/12/18 08:14:19;;;;;;;92.60;7.60;;;;;;;3.69;100.00;102849.72;4815037;29;20026;-78
2021/12/18 08:16:47;;;;;;;103.57;8.57;;;;;;;3.98;100.00;102895.69;4809973;29;20043;-79
2021/12/18 08:19:14;;;;;;;94.95;8.10;;;;;;;3.98;100.00;102885.03;4795876;29;20035;-79
2021/12/18 08:21:39;;;;;;;87.75;8.90;;;;;;;4.01;100.00;102891.97;4797065;29;20039;-78
2021/12/18 08:24:05;;;;;;;99.75;9.43;;;;;;;4.03;100.00;102892.69;4812061;29;20081;-79
2021/12/18 08:26:30;;;;;;;104.53;10.98;;;;;;;4.03;100.00;102882.03;4798256;29;20049;-79
2021/12/18 08:28:55;;;;;;;180.27;17.60;;;;;;;4.04;100.00;102878.44;4796103;29;20057;-79
2021/12/18 08:31:21;;;;;;;109.03;13.98;;;;;;;3.96;100.00;102865.63;4795066;29;20484;-79
2021/12/18 08:33:46;;;;;;;146.52;17.55;;;;;;;4.08;100.00;102887.91;4795518;29;20084;-80
2021/12/18 08:36:11;;;;;;;148.93;17.23;;;;;;;3.63;100.00;102815.53;4806168;29;20047;-79
2021/12/18 08:38:37;;;;;;;156.15;17.80;;;;;;;4.15;100.00;102897.19;4799620;29;20028;-78
2021/12/18 08:41:02;;;;;;;129.50;18.20;;;;;;;4.20;100.00;102900.38;4790610;29;20118;-78
2021/12/18 08:43:28;;;;;;;199.20;18.95;;;;;;;4.20;100.00;102895.03;4805548;29;20043;-78
2021/12/18 08:45:53;;;;;;;160.20;18.20;;;;;;;4.25;100.00;102902.72;4800586;29;20092;-78
2021/12/18 08:48:19;;;;;;;84.05;11.90;;;;;;;4.32;100.00;102893.34;4777963;29;20364;-80
2021/12/18 08:50:44;;;;;;;329.45;97.25;;;;;;;4.37;100.00;102893.91;4823940;29;20477;-77
2021/12/18 08:53:10;;;;;;;412.80;56.75;;;;;;;4.38;100.00;102884.06;4807817;29;20470;-78
2021/12/18 08:55:35;;;;;;;289.23;30.48;;;;;;;4.33;100.00;102867.53;4808882;29;20057;-78
2021/12/18 08:58:01;;;;;;;131.00;18.27;;;;;;;4.30;100.00;102859.75;4809084;29;20058;-80
2021/12/18 09:00:29;;;;;;;72.60;9.75;;;;;;;4.51;100.00;102889.41;4805752;29;20049;-79
2021/12/18 09:02:54;;;;;;;102.97;10.05;;;;;;;4.56;100.00;102881.91;4809308;29;20038;-79
2021/12/18 09:05:21;;;;;;;168.10;13.93;;;;;;;4.59;100.00;102887.03;4798231;29;20034;-78
2021/12/18 09:07:47;;;;;;;252.57;21.33;;;;;;;4.62;100.00;102884.16;4808116;29;20074;-78
2021/12/18 09:10:14;;;;;;;272.70;21.33;;;;;;;4.65;100.00;102892.78;4822662;29;20077;-78
2021/12/18 09:12:40;;;;;;;430.55;67.25;;;;;;;4.53;100.00;102859.00;4808560;29;20026;-78
2021/12/18 09:15:06;;;;;;;740.53;74.75;;;;;;;4.71;100.00;102875.50;4807794;29;20153;-78
2021/12/18 09:17:32;;;;;;;159.10;22.52;;;;;;;4.71;100.00;102871.00;4808628;29;20038;-79
2021/12/18 09:19:57;;;;;;;197.07;26.63;;;;;;;4.79;100.00;102883.78;4791646;29;20038;-78
2021/12/18 09:22:22;;;;;;;192.05;24.60;;;;;;;4.83;100.00;102881.75;4810105;29;20051;-79
2021/12/18 09:24:48;;;;;;;171.32;20.83;;;;;;;4.83;100.00;102858.59;4806203;29;20183;-77
2021/12/18 09:27:17;;;;;;;206.27;15.38;;;;;;;4.86;100.00;102852.19;4805005;29;20073;-78
2021/12/18 09:29:43;;;;;;;168.93;13.73;;;;;;;4.86;100.00;102844.19;4794417;29;20074;-78
2021/12/18 09:32:08;;;;;;;87.75;9.10;;;;;;;4.75;100.00;102822.78;4793545;29;20094;-78
2021/12/18 09:34:34;;;;;;;95.05;13.35;;;;;;;4.93;100.00;102856.13;4802803;29;20035;-78
2021/12/18 09:36:59;;;;;;;128.38;9.98;;;;;;;4.87;100.00;102851.25;4809491;29;20038;-78
2021/12/18 09:39:25;;;;;;;118.53;13.52;;;;;;;4.95;100.00;102867.53;4807928;29;20034;-78
2021/12/18 09:41:51;;;;;;;142.02;10.23;;;;;;;4.97;100.00;102867.41;4795218;29;20478;-79
2021/12/18 09:44:29;;;;;;;88.57;8.00;;;;;;;4.87;100.00;102848.59;4807417;29;20115;-78
2021/12/18 09:46:56;;;;;;;202.18;10.52;;;;;;;4.98;100.00;102847.78;4789173;29;20477;-79
2021/12/18 09:49:22;;;;;;;195.15;11.57;;;;;;;4.95;100.00;102838.19;4798474;29;20047;-78
2021/12/18 09:51:48;;;;;;;69.85;7.07;;;;;;;4.92;100.00;102839.25;4790296;29;20029;-79
2021/12/18 09:54:13;;;;;;;110.45;8.00;;;;;;;4.98;100.00;102837.13;4808442;29;20191;-78
2021/12/18 09:56:39;;;;;;;109.93;7.00;;;;;;;4.88;100.00;102837.78;4798131;29;20110;-79
2021/12/18 09:59:05;;;;;;;88.25;6.43;;;;;;;4.97;100.00;102835.41;4809886;29;20037;-78
2021/12/18 10:01:31;;;;;;;124.53;6.80;;;;;;;4.91;100.00;102842.06;4805954;29;20458;-78
2021/12/18 10:03:59;;;;;;;123.53;7.40;;;;;;;4.93;100.00;102819.66;4805107;29;20083;-78
2021/12/18 10:06:40;;;;;;;110.35;7.07;;;;;;;4.93;100.00;102824.97;4806276;29;20461;-78
2021/12/18 10:09:07;;;;;;;111.15;8.18;;;;;;;4.91;100.00;102826.06;4800981;29;20054;-79
2021/12/18 10:11:33;;;;;;;62.83;5.90;;;;;;;4.81;100.00;102801.00;4806217;29;20031;-78
2021/12/18 10:14:02;;;;;;;164.85;9.55;;;;;;;4.85;100.00;102799.81;4806722;29;20035;-78
2021/12/18 10:16:29;;;;;;;158.23;10.00;;;;;;;4.90;100.00;102816.31;4791078;29;20421;-78
2021/12/18 10:18:56;;;;;;;116.25;7.05;;;;;;;4.90;100.00;102829.66;4776486;29;20140;-78
2021/12/18 10:21:24;;;;;;;85.47;6.65;;;;;;;4.92;100.00;102827.75;4813647;29;20041;-79
2021/12/18 10:23:51;;;;;;;145.88;8.90;;;;;;;4.81;100.00;102803.69;4806573;29;20034;-79
2021/12/18 10:26:35;;;;;;;104.40;6.63;;;;;;;4.95;100.00;102816.84;4805475;29;20031;-79
2021/12/18 10:29:00;;;;;;;161.80;7.20;;;;;;;4.98;100.00;102805.09;4804622;29;20030;-78
2021/12/18 10:31:38;;;;;;;155.73;9.15;;;;;;;4.98;100.00;102800.63;4791126;29;20469;-79
2021/12/18 10:34:14;;;;;;;196.52;8.13;;;;;;;4.96;100.00;102791.88;4803530;29;20031;-78
2021/12/18 10:36:39;;;;;;;128.70;6.72;;;;;;;5.06;100.00;102795.53;4806190;29;20034;-78
2021/12/18 10:39:05;;;;;;;86.10;6.53;;;;;;;5.03;100.00;102787.78;4791233;29;20046;-79
2021/12/18 10:41:34;;;;;;;81.70;7.68;;;;;;;5.04;100.00;102793.97;4806487;29;20039;-79
2021/12/18 10:44:11;;;;;;;94.70;7.13;;;;;;;5.06;100.00;102782.22;4804089;29;20061;-79
2021/12/18 10:46:43;;;;;;;119.18;7.75;;;;;;;4.98;100.00;102771.28;4807199;29;20039;-77
2021/12/18 10:49:11;;;;;;;123.53;7.40;;;;;;;5.03;100.00;102771.75;4802331;29;20085;-79
2021/12/18 10:51:39;;;;;;;205.88;10.95;;;;;;;5.09;100.00;102762.47;4807559;29;20092;-79
2021/12/18 10:54:14;;;;;;;78.38;6.85;;;;;;;5.10;100.00;102761.47;4806925;29;20030;-79
2021/12/18 10:56:40;;;;;;;;;;;;;;;5.13;100.00;102753.25;4808053;29;20103;-79
2021/12/18 10:59:36;;;;;;;84.78;7.43;;;;;;;5.03;100.00;102734.41;4806892;29;19913;-79
2021/12/18 11:02:04;;;;;;;53.25;5.47;;;;;;;5.09;100.00;102733.94;4807523;29;20612;-78
2021/12/18 11:04:32;;;;;;;101.50;7.47;;;;;;;5.14;100.00;102730.94;4790773;29;20081;-78
2021/12/18 11:06:59;;;;;;;107.88;8.60;;;;;;;5.17;100.00;102731.56;4805263;29;20035;-78
2021/12/18 11:09:32;;;;;;;132.52;8.43;;;;;;;5.16;100.00;102723.66;4798213;29;20047;-78
2021/12/18 11:14:34;;;;;;;65.95;5.63;;;;;;;5.14;100.00;102720.28;4802960;29;20045;-79
2021/12/18 11:17:01;;;;;;;45.55;4.68;;;;;;;5.16;100.00;102726.34;4790312;29;20027;-79
2021/12/18 11:19:31;;;;;;;43.05;4.60;;;;;;;5.23;100.00;102721.38;4804135;29;20027;-79
2021/12/18 11:22:03;;;;;;;44.05;4.72;;;;;;;5.28;100.00;102717.41;4803505;29;20035;-79
2021/12/18 11:24:37;;;;;;;54.03;4.40;;;;;;;5.35;100.00;102704.44;4785925;29;20039;-79
2021/12/18 11:27:04;;;;;;;40.00;4.13;;;;;;;5.41;100.00;102699.47;4803435;29;20380;-80
2021/12/18 11:29:34;;;;;;;53.33;4.07;;;;;;;5.41;100.00;102696.78;4804639;29;20114;-79
2021/12/18 11:32:01;;;;;;;33.80;4.43;;;;;;;5.40;100.00;102692.44;4787857;29;20403;-79
2021/12/18 11:34:27;;;;;;;152.93;7.47;;;;;;;5.19;100.00;102667.38;4803107;29;20026;-80
2021/12/18 11:36:54;;;;;;;198.38;8.20;;;;;;;5.22;100.00;102690.31;4801076;29;20061;-80
2021/12/18 11:39:24;;;;;;;184.40;9.75;;;;;;;5.19;100.00;102678.06;4789521;29;20121;-79
2021/12/18 11:41:51;;;;;;;122.25;7.43;;;;;;;5.17;100.00;102688.03;4804320;29;20031;-79
2021/12/18 11:44:24;;;;;;;121.90;6.15;;;;;;;4.74;100.00;102619.28;4802084;29;20031;-79
2021/12/18 11:46:49;;;;;;;62.65;5.20;;;;;;;5.05;100.00;102675.63;4799792;29;20121;-79
2021/12/18 11:49:15;;;;;;;54.75;5.28;;;;;;;5.13;100.00;102676.75;4792736;29;20039;-80
2021/12/18 11:51:56;;;;;;;67.80;5.53;;;;;;;5.12;100.00;102664.34;4804077;29;20104;-80
2021/12/18 11:54:40;;;;;;;41.50;4.78;;;;;;;5.15;100.00;102673.94;4798208;29;20042;-79